sensor_id;sensor_type;location;lat;lon;timestamp;pressure;altitude;pressure_sealevel;temperature
49567;BMP280;35472;50.514;30.448;2024-02-23T00:00:52;99643.75;;;7.85
49567;BMP280;35472;50.514;30.448;2024-02-23T00:03:18;99639.50;;;7.98
49567;BMP280;35472;50.514;30.448;2024-02-23T00:05:43;99640.31;;;7.84
49567;BMP280;35472;50.514;30.448;2024-02-23T00:08:08;99623.88;;;7.72
49567;BMP280;35472;50.514;30.448;2024-02-23T00:10:37;99625.00;;;7.67
49567;BMP280;35472;50.514;30.448;2024-02-23T00:13:02;99625.00;;;7.71
49567;BMP280;35472;50.514;30.448;2024-02-23T00:15:27;99632.28;;;7.53
49567;BMP280;35472;50.514;30.448;2024-02-23T00:17:53;99630.38;;;7.67
49567;BMP280;35472;50.514;30.448;2024-02-23T00:20:18;99642.59;;;7.65
49567;BMP280;35472;50.514;30.448;2024-02-23T00:22:46;99632.66;;;7.40
49567;BMP280;35472;50.514;30.448;2024-02-23T00:25:12;99627.69;;;7.53
49567;BMP280;35472;50.514;30.448;2024-02-23T00:27:37;99629.59;;;7.60
49567;BMP280;35472;50.514;30.448;2024-02-23T00:30:05;99626.53;;;7.54
49567;BMP280;35472;50.514;30.448;2024-02-23T00:32:31;99618.50;;;7.40
49567;BMP280;35472;50.514;30.448;2024-02-23T00:34:57;99625.00;;;7.50
49567;BMP280;35472;50.514;30.448;2024-02-23T00:37:22;99625.75;;;7.54
49567;BMP280;35472;50.514;30.448;2024-02-23T00:39:48;99623.06;;;7.68
49567;BMP280;35472;50.514;30.448;2024-02-23T00:42:13;99626.53;;;7.40
49567;BMP280;35472;50.514;30.448;2024-02-23T00:44:38;99615.47;;;7.49
49567;BMP280;35472;50.514;30.448;2024-02-23T00:47:04;99623.88;;;7.47
49567;BMP280;35472;50.514;30.448;2024-02-23T00:49:30;99626.91;;;7.56
49567;BMP280;35472;50.514;30.448;2024-02-23T00:51:56;99628.09;;;7.41
49567;BMP280;35472;50.514;30.448;2024-02-23T00:54:21;99628.78;;;7.31
49567;BMP280;35472;50.514;30.448;2024-02-23T00:56:47;99640.66;;;7.33
49567;BMP280;35472;50.514;30.448;2024-02-23T00:59:12;99635.34;;;7.48
49567;BMP280;35472;50.514;30.448;2024-02-23T01:01:38;99633.81;;;7.36
49567;BMP280;35472;50.514;30.448;2024-02-23T01:04:03;99641.44;;;7.34
49567;BMP280;35472;50.514;30.448;2024-02-23T01:06:31;99633.81;;;7.29
49567;BMP280;35472;50.514;30.448;2024-02-23T01:08:56;99631.50;;;7.27
49567;BMP280;35472;50.514;30.448;2024-02-23T01:11:21;99630.28;;;7.07
49567;BMP280;35472;50.514;30.448;2024-02-23T01:13:47;99630.31;;;7.14
49567;BMP280;35472;50.514;30.448;2024-02-23T01:16:12;99621.94;;;7.23
49567;BMP280;35472;50.514;30.448;2024-02-23T01:18:37;99621.13;;;7.19
49567;BMP280;35472;50.514;30.448;2024-02-23T01:21:03;99628.44;;;7.32
49567;BMP280;35472;50.514;30.448;2024-02-23T01:23:28;99622.28;;;7.14
49567;BMP280;35472;50.514;30.448;2024-02-23T01:25:54;99616.59;;;7.33
49567;BMP280;35472;50.514;30.448;2024-02-23T01:28:22;99616.97;;;7.43
49567;BMP280;35472;50.514;30.448;2024-02-23T01:30:47;99621.56;;;7.17
49567;BMP280;35472;50.514;30.448;2024-02-23T01:33:13;99624.16;;;7.07
49567;BMP280;35472;50.514;30.448;2024-02-23T01:35:38;99614.63;;;7.20
49567;BMP280;35472;50.514;30.448;2024-02-23T01:38:03;99618.47;;;7.15
49567;BMP280;35472;50.514;30.448;2024-02-23T01:40:29;99621.19;;;7.29
49567;BMP280;35472;50.514;30.448;2024-02-23T01:43:04;99616.97;;;7.43
49567;BMP280;35472;50.514;30.448;2024-02-23T01:45:32;99602.03;;;7.10
49567;BMP280;35472;50.514;30.448;2024-02-23T01:47:58;99620.78;;;7.45
49567;BMP280;35472;50.514;30.448;2024-02-23T01:50:25;99611.91;;;6.95
49567;BMP280;35472;50.514;30.448;2024-02-23T01:52:51;99618.41;;;6.94
49567;BMP280;35472;50.514;30.448;2024-02-23T01:55:19;99622.66;;;7.06
49567;BMP280;35472;50.514;30.448;2024-02-23T01:57:45;99616.94;;;7.18
49567;BMP280;35472;50.514;30.448;2024-02-23T02:00:16;99625.69;;;6.97
49567;BMP280;35472;50.514;30.448;2024-02-23T02:02:48;99619.53;;;6.82
49567;BMP280;35472;50.514;30.448;2024-02-23T02:05:14;99617.69;;;7.08
49567;BMP280;35472;50.514;30.448;2024-02-23T02:07:41;99620.00;;;7.09
49567;BMP280;35472;50.514;30.448;2024-02-23T02:10:08;99605.06;;;7.01
49567;BMP280;35472;50.514;30.448;2024-02-23T02:12:34;99613.09;;;7.01
49567;BMP280;35472;50.514;30.448;2024-02-23T02:15:04;99608.09;;;6.89
49567;BMP280;35472;50.514;30.448;2024-02-23T02:17:29;99609.28;;;7.06
49567;BMP280;35472;50.514;30.448;2024-02-23T02:19:55;99604.66;;;6.88
49567;BMP280;35472;50.514;30.448;2024-02-23T02:22:21;99600.44;;;6.77
49567;BMP280;35472;50.514;30.448;2024-02-23T02:24:46;99604.66;;;6.81
49567;BMP280;35472;50.514;30.448;2024-02-23T02:27:13;99596.59;;;6.74
49567;BMP280;35472;50.514;30.448;2024-02-23T02:29:39;99603.03;;;6.59
49567;BMP280;35472;50.514;30.448;2024-02-23T02:32:04;99587.81;;;6.67
49567;BMP280;35472;50.514;30.448;2024-02-23T02:34:30;99592.78;;;6.72
49567;BMP280;35472;50.514;30.448;2024-02-23T02:36:55;99585.53;;;6.76
49567;BMP280;35472;50.514;30.448;2024-02-23T02:39:21;99589.31;;;6.64
49567;BMP280;35472;50.514;30.448;2024-02-23T02:41:48;99594.69;;;6.71
49567;BMP280;35472;50.514;30.448;2024-02-23T02:44:13;99608.47;;;6.80
49567;BMP280;35472;50.514;30.448;2024-02-23T02:46:39;99592.03;;;6.82
49567;BMP280;35472;50.514;30.448;2024-02-23T02:49:04;99579.81;;;6.77
49567;BMP280;35472;50.514;30.448;2024-02-23T02:51:33;99588.19;;;6.76
49567;BMP280;35472;50.514;30.448;2024-02-23T02:53:58;99584.31;;;6.59
49567;BMP280;35472;50.514;30.448;2024-02-23T02:56:23;99584.72;;;6.65
49567;BMP280;35472;50.514;30.448;2024-02-23T02:58:49;99588.19;;;6.83
49567;BMP280;35472;50.514;30.448;2024-02-23T03:01:14;99573.31;;;6.68
49567;BMP280;35472;50.514;30.448;2024-02-23T03:03:42;99594.38;;;6.98
49567;BMP280;35472;50.514;30.448;2024-02-23T03:06:08;99588.25;;;6.93
49567;BMP280;35472;50.514;30.448;2024-02-23T03:08:33;99592.06;;;6.96
49567;BMP280;35472;50.514;30.448;2024-02-23T03:10:59;99593.97;;;6.99
49567;BMP280;35472;50.514;30.448;2024-02-23T03:13:28;99587.81;;;6.74
49567;BMP280;35472;50.514;30.448;2024-02-23T03:15:53;99583.66;;;6.80
49567;BMP280;35472;50.514;30.448;2024-02-23T03:18:19;99591.28;;;6.81
49567;BMP280;35472;50.514;30.448;2024-02-23T03:20:44;99589.41;;;6.92
49567;BMP280;35472;50.514;30.448;2024-02-23T03:23:10;99597.75;;;6.73
49567;BMP280;35472;50.514;30.448;2024-02-23T03:25:36;99593.13;;;6.63
49567;BMP280;35472;50.514;30.448;2024-02-23T03:28:01;99599.28;;;6.81
49567;BMP280;35472;50.514;30.448;2024-02-23T03:30:27;99598.59;;;6.99
49567;BMP280;35472;50.514;30.448;2024-02-23T03:32:52;99604.97;;;6.69
49567;BMP280;35472;50.514;30.448;2024-02-23T03:35:17;99597.41;;;6.85
49567;BMP280;35472;50.514;30.448;2024-02-23T03:37:43;99593.97;;;6.85
49567;BMP280;35472;50.514;30.448;2024-02-23T03:40:08;99603.13;;;6.87
49567;BMP280;35472;50.514;30.448;2024-02-23T03:42:35;99604.28;;;6.93
49567;BMP280;35472;50.514;30.448;2024-02-23T03:45:00;99605.38;;;6.82
49567;BMP280;35472;50.514;30.448;2024-02-23T03:47:26;99601.56;;;6.72
49567;BMP280;35472;50.514;30.448;2024-02-23T03:49:51;99608.81;;;6.75
49567;BMP280;35472;50.514;30.448;2024-02-23T03:52:16;99596.19;;;6.65
49567;BMP280;35472;50.514;30.448;2024-02-23T03:54:42;99604.69;;;7.03
49567;BMP280;35472;50.514;30.448;2024-02-23T03:57:07;99601.19;;;6.77
49567;BMP280;35472;50.514;30.448;2024-02-23T03:59:35;99600.06;;;6.78
49567;BMP280;35472;50.514;30.448;2024-02-23T04:02:00;99599.69;;;6.94
49567;BMP280;35472;50.514;30.448;2024-02-23T04:04:25;99597.41;;;7.00
49567;BMP280;35472;50.514;30.448;2024-02-23T04:06:51;99599.72;;;6.98
49567;BMP280;35472;50.514;30.448;2024-02-23T04:09:16;99598.59;;;7.06
49567;BMP280;35472;50.514;30.448;2024-02-23T04:11:41;99591.28;;;6.85
49567;BMP280;35472;50.514;30.448;2024-02-23T04:14:07;99596.97;;;6.76
49567;BMP280;35472;50.514;30.448;2024-02-23T04:16:32;99591.59;;;6.69
49567;BMP280;35472;50.514;30.448;2024-02-23T04:18:57;99595.81;;;6.70
49567;BMP280;35472;50.514;30.448;2024-02-23T04:21:24;99595.84;;;6.77
49567;BMP280;35472;50.514;30.448;2024-02-23T04:23:50;99596.66;;;6.92
49567;BMP280;35472;50.514;30.448;2024-02-23T04:26:15;99589.75;;;6.94
49567;BMP280;35472;50.514;30.448;2024-02-23T04:28:41;99594.72;;;6.85
49567;BMP280;35472;50.514;30.448;2024-02-23T04:31:08;99601.63;;;6.90
49567;BMP280;35472;50.514;30.448;2024-02-23T04:33:34;99598.53;;;6.81
49567;BMP280;35472;50.514;30.448;2024-02-23T04:36:01;99602.00;;;6.95
49567;BMP280;35472;50.514;30.448;2024-02-23T04:38:26;99594.31;;;6.87
49567;BMP280;35472;50.514;30.448;2024-02-23T04:40:53;99596.28;;;6.97
49567;BMP280;35472;50.514;30.448;2024-02-23T04:43:20;99601.56;;;6.72
49567;BMP280;35472;50.514;30.448;2024-02-23T04:45:46;99596.94;;;6.69
49567;BMP280;35472;50.514;30.448;2024-02-23T04:48:11;99599.31;;;6.85
49567;BMP280;35472;50.514;30.448;2024-02-23T04:50:36;99598.94;;;6.90
49567;BMP280;35472;50.514;30.448;2024-02-23T04:53:02;99598.19;;;7.07
49567;BMP280;35472;50.514;30.448;2024-02-23T04:55:27;99606.25;;;7.11
49567;BMP280;35472;50.514;30.448;2024-02-23T04:57:53;99609.28;;;6.91
49567;BMP280;35472;50.514;30.448;2024-02-23T05:00:18;99610.81;;;6.92
49567;BMP280;35472;50.514;30.448;2024-02-23T05:02:47;99609.66;;;6.93
49567;BMP280;35472;50.514;30.448;2024-02-23T05:05:12;99617.28;;;6.95
49567;BMP280;35472;50.514;30.448;2024-02-23T05:07:40;99616.47;;;6.84
49567;BMP280;35472;50.514;30.448;2024-02-23T05:10:05;99615.34;;;6.88
49567;BMP280;35472;50.514;30.448;2024-02-23T05:12:31;99613.81;;;6.84
49567;BMP280;35472;50.514;30.448;2024-02-23T05:14:56;99618.41;;;6.94
49567;BMP280;35472;50.514;30.448;2024-02-23T05:17:21;99623.03;;;7.08
49567;BMP280;35472;50.514;30.448;2024-02-23T05:19:48;99619.94;;;6.95
49567;BMP280;35472;50.514;30.448;2024-02-23T05:22:13;99614.22;;;6.93
49567;BMP280;35472;50.514;30.448;2024-02-23T05:24:39;99629.09;;;6.83
49567;BMP280;35472;50.514;30.448;2024-02-23T05:27:04;99630.28;;;6.97
49567;BMP280;35472;50.514;30.448;2024-02-23T05:29:30;99632.50;;;6.66
49567;BMP280;35472;50.514;30.448;2024-02-23T05:31:55;99634.06;;;6.85
49567;BMP280;35472;50.514;30.448;2024-02-23T05:34:21;99642.47;;;6.83
49567;BMP280;35472;50.514;30.448;2024-02-23T05:36:47;99645.97;;;7.02
49567;BMP280;35472;50.514;30.448;2024-02-23T05:39:13;99652.09;;;7.06
49567;BMP280;35472;50.514;30.448;2024-02-23T05:41:41;99640.63;;;7.12
49567;BMP280;35472;50.514;30.448;2024-02-23T05:44:07;99652.78;;;6.88
49567;BMP280;35472;50.514;30.448;2024-02-23T05:46:33;99650.50;;;6.80
49567;BMP280;35472;50.514;30.448;2024-02-23T05:48:59;99657.00;;;6.89
49567;BMP280;35472;50.514;30.448;2024-02-23T05:51:28;99655.41;;;6.74
49567;BMP280;35472;50.514;30.448;2024-02-23T05:53:54;99653.56;;;6.85
49567;BMP280;35472;50.514;30.448;2024-02-23T05:56:19;99649.69;;;6.72
49567;BMP280;35472;50.514;30.448;2024-02-23T05:58:45;99655.03;;;6.72
49567;BMP280;35472;50.514;30.448;2024-02-23T06:01:10;99661.91;;;6.66
49567;BMP280;35472;50.514;30.448;2024-02-23T06:03:36;99663.47;;;6.78
49567;BMP280;35472;50.514;30.448;2024-02-23T06:06:01;99671.28;;;7.29
49567;BMP280;35472;50.514;30.448;2024-02-23T06:08:26;99658.63;;;7.15
49567;BMP280;35472;50.514;30.448;2024-02-23T06:10:52;99674.31;;;7.27
49567;BMP280;35472;50.514;30.448;2024-02-23T06:13:17;99672.25;;;6.78
49567;BMP280;35472;50.514;30.448;2024-02-23T06:15:42;99679.56;;;6.95
49567;BMP280;35472;50.514;30.448;2024-02-23T06:18:08;99662.72;;;6.88
49567;BMP280;35472;50.514;30.448;2024-02-23T06:20:34;99675.44;;;7.16
49567;BMP280;35472;50.514;30.448;2024-02-23T06:22:59;99674.28;;;7.31
49567;BMP280;35472;50.514;30.448;2024-02-23T06:25:24;99668.13;;;6.91
49567;BMP280;35472;50.514;30.448;2024-02-23T06:27:50;99675.03;;;7.10
49567;BMP280;35472;50.514;30.448;2024-02-23T06:30:15;99671.94;;;6.98
49567;BMP280;35472;50.514;30.448;2024-02-23T06:32:41;99659.75;;;7.25
49567;BMP280;35472;50.514;30.448;2024-02-23T06:35:06;99665.06;;;7.07
49567;BMP280;35472;50.514;30.448;2024-02-23T06:37:32;99663.94;;;7.08
49567;BMP280;35472;50.514;30.448;2024-02-23T06:39:58;99670.06;;;7.09
49567;BMP280;35472;50.514;30.448;2024-02-23T06:42:23;99663.59;;;7.24
49567;BMP280;35472;50.514;30.448;2024-02-23T06:44:49;99668.59;;;7.47
49567;BMP280;35472;50.514;30.448;2024-02-23T06:47:15;99673.13;;;7.18
49567;BMP280;35472;50.514;30.448;2024-02-23T06:49:43;99672.69;;;6.91
49567;BMP280;35472;50.514;30.448;2024-02-23T06:52:09;99668.53;;;7.18
49567;BMP280;35472;50.514;30.448;2024-02-23T06:54:35;99683.06;;;7.10
49567;BMP280;35472;50.514;30.448;2024-02-23T06:57:01;99686.88;;;7.06
49567;BMP280;35472;50.514;30.448;2024-02-23T06:59:29;99666.66;;;7.15
49567;BMP280;35472;50.514;30.448;2024-02-23T07:01:54;99675.41;;;7.09
49567;BMP280;35472;50.514;30.448;2024-02-23T07:04:22;99680.00;;;7.12
49567;BMP280;35472;50.514;30.448;2024-02-23T07:06:47;99677.41;;;7.47
49567;BMP280;35472;50.514;30.448;2024-02-23T07:09:13;99688.06;;;7.36
49567;BMP280;35472;50.514;30.448;2024-02-23T07:11:39;99674.31;;;7.34
49567;BMP280;35472;50.514;30.448;2024-02-23T07:14:09;99680.78;;;7.19
49567;BMP280;35472;50.514;30.448;2024-02-23T07:16:38;99685.34;;;7.08
49567;BMP280;35472;50.514;30.448;2024-02-23T07:19:05;99696.13;;;7.43
49567;BMP280;35472;50.514;30.448;2024-02-23T07:21:30;99702.56;;;7.14
49567;BMP280;35472;50.514;30.448;2024-02-23T07:23:58;99707.16;;;7.21
49567;BMP280;35472;50.514;30.448;2024-02-23T07:26:23;99692.28;;;7.37
49567;BMP280;35472;50.514;30.448;2024-02-23T07:28:48;99705.72;;;7.48
49567;BMP280;35472;50.514;30.448;2024-02-23T07:31:17;99686.19;;;7.58
49567;BMP280;35472;50.514;30.448;2024-02-23T07:33:42;99710.94;;;7.09
49567;BMP280;35472;50.514;30.448;2024-02-23T07:36:16;99706.09;;;7.54
49567;BMP280;35472;50.514;30.448;2024-02-23T07:38:42;99711.78;;;7.34
49567;BMP280;35472;50.514;30.448;2024-02-23T07:41:09;99699.16;;;7.31
49567;BMP280;35472;50.514;30.448;2024-02-23T07:43:34;99697.28;;;7.53
49567;BMP280;35472;50.514;30.448;2024-02-23T07:46:01;99711.44;;;7.36
49567;BMP280;35472;50.514;30.448;2024-02-23T07:48:27;99713.34;;;7.57
49567;BMP280;35472;50.514;30.448;2024-02-23T07:50:53;99723.63;;;7.33
49567;BMP280;35472;50.514;30.448;2024-02-23T07:53:18;99703.81;;;7.52
49567;BMP280;35472;50.514;30.448;2024-02-23T07:55:44;99712.25;;;7.61
49567;BMP280;35472;50.514;30.448;2024-02-23T07:58:09;99707.63;;;7.55
49567;BMP280;35472;50.514;30.448;2024-02-23T08:00:35;99724.50;;;7.73
49567;BMP280;35472;50.514;30.448;2024-02-23T08:03:03;99703.03;;;7.48
49567;BMP280;35472;50.514;30.448;2024-02-23T08:05:30;99719.06;;;7.34
49567;BMP280;35472;50.514;30.448;2024-02-23T08:07:56;99716.38;;;7.45
49567;BMP280;35472;50.514;30.448;2024-02-23T08:10:27;99730.91;;;7.36
49567;BMP280;35472;50.514;30.448;2024-02-23T08:12:52;99715.25;;;7.46
49567;BMP280;35472;50.514;30.448;2024-02-23T08:15:18;99723.28;;;7.46
49567;BMP280;35472;50.514;30.448;2024-02-23T08:17:43;99712.91;;;7.26
49567;BMP280;35472;50.514;30.448;2024-02-23T08:20:09;99722.50;;;7.38
49567;BMP280;35472;50.514;30.448;2024-02-23T08:22:35;99728.59;;;7.31
49567;BMP280;35472;50.514;30.448;2024-02-23T08:25:00;99727.81;;;7.31
49567;BMP280;35472;50.514;30.448;2024-02-23T08:27:27;99742.00;;;7.42
49567;BMP280;35472;50.514;30.448;2024-02-23T08:29:53;99751.63;;;7.64
49567;BMP280;35472;50.514;30.448;2024-02-23T08:32:18;99735.16;;;7.48
49567;BMP280;35472;50.514;30.448;2024-02-23T08:34:44;99742.44;;;7.55
49567;BMP280;35472;50.514;30.448;2024-02-23T08:37:09;99747.00;;;7.40
49567;BMP280;35472;50.514;30.448;2024-02-23T08:39:35;99753.13;;;7.48
49567;BMP280;35472;50.514;30.448;2024-02-23T08:42:02;99747.00;;;7.51
49567;BMP280;35472;50.514;30.448;2024-02-23T08:44:28;99745.06;;;7.44
49567;BMP280;35472;50.514;30.448;2024-02-23T08:46:53;99747.44;;;7.74
49567;BMP280;35472;50.514;30.448;2024-02-23T08:49:19;99738.25;;;7.75
49567;BMP280;35472;50.514;30.448;2024-02-23T08:51:44;99748.91;;;7.50
49567;BMP280;35472;50.514;30.448;2024-02-23T08:54:10;99748.56;;;7.59
49567;BMP280;35472;50.514;30.448;2024-02-23T08:56:38;99741.25;;;7.45
49567;BMP280;35472;50.514;30.448;2024-02-23T08:59:08;99750.47;;;7.55
49567;BMP280;35472;50.514;30.448;2024-02-23T09:01:36;99765.03;;;7.75
49567;BMP280;35472;50.514;30.448;2024-02-23T09:04:05;99760.47;;;7.86
49567;BMP280;35472;50.514;30.448;2024-02-23T09:06:30;99763.13;;;7.82
49567;BMP280;35472;50.514;30.448;2024-02-23T09:09:00;99762.38;;;8.03
49567;BMP280;35472;50.514;30.448;2024-02-23T09:11:25;99757.00;;;7.93
49567;BMP280;35472;50.514;30.448;2024-02-23T09:13:51;99773.84;;;7.89
49567;BMP280;35472;50.514;30.448;2024-02-23T09:16:17;99770.41;;;7.93
49567;BMP280;35472;50.514;30.448;2024-02-23T09:18:42;99769.63;;;7.60
49567;BMP280;35472;50.514;30.448;2024-02-23T09:21:10;99754.34;;;7.85
49567;BMP280;35472;50.514;30.448;2024-02-23T09:23:35;99771.91;;;7.76
49567;BMP280;35472;50.514;30.448;2024-02-23T09:26:00;99777.25;;;7.58
49567;BMP280;35472;50.514;30.448;2024-02-23T09:28:26;99766.97;;;7.96
49567;BMP280;35472;50.514;30.448;2024-02-23T09:30:53;99769.28;;;8.08
49567;BMP280;35472;50.514;30.448;2024-02-23T09:33:19;99765.03;;;7.82
49567;BMP280;35472;50.514;30.448;2024-02-23T09:35:44;99769.63;;;7.99
49567;BMP280;35472;50.514;30.448;2024-02-23T09:38:09;99780.34;;;7.99
49567;BMP280;35472;50.514;30.448;2024-02-23T09:40:35;99771.56;;;7.92
49567;BMP280;35472;50.514;30.448;2024-02-23T09:43:01;99784.19;;;8.33
49567;BMP280;35472;50.514;30.448;2024-02-23T09:45:27;99778.47;;;7.96
49567;BMP280;35472;50.514;30.448;2024-02-23T09:47:57;99784.19;;;7.95
49567;BMP280;35472;50.514;30.448;2024-02-23T09:50:23;99784.19;;;8.26
49567;BMP280;35472;50.514;30.448;2024-02-23T09:52:51;99792.59;;;8.43
49567;BMP280;35472;50.514;30.448;2024-02-23T09:55:17;99777.31;;;8.22
49567;BMP280;35472;50.514;30.448;2024-02-23T09:57:44;99783.41;;;7.98
49567;BMP280;35472;50.514;30.448;2024-02-23T10:00:10;99777.31;;;7.97
49567;BMP280;35472;50.514;30.448;2024-02-23T10:02:42;99780.38;;;8.17
49567;BMP280;35472;50.514;30.448;2024-02-23T10:05:13;99766.97;;;7.96
49567;BMP280;35472;50.514;30.448;2024-02-23T10:07:39;99783.78;;;7.93
49567;BMP280;35472;50.514;30.448;2024-02-23T10:10:07;99782.25;;;8.20
49567;BMP280;35472;50.514;30.448;2024-02-23T10:12:34;99781.50;;;8.09
49567;BMP280;35472;50.514;30.448;2024-02-23T10:15:00;99770.03;;;8.08
49567;BMP280;35472;50.514;30.448;2024-02-23T10:17:32;99768.09;;;8.12
49567;BMP280;35472;50.514;30.448;2024-02-23T10:19:59;99771.56;;;8.02
49567;BMP280;35472;50.514;30.448;2024-02-23T10:22:24;99778.44;;;7.89
49567;BMP280;35472;50.514;30.448;2024-02-23T10:24:55;99778.81;;;8.19
49567;BMP280;35472;50.514;30.448;2024-02-23T10:27:21;99774.59;;;8.18
49567;BMP280;35472;50.514;30.448;2024-02-23T10:29:50;99779.19;;;8.43
49567;BMP280;35472;50.514;30.448;2024-02-23T10:32:18;99778.06;;;8.19
49567;BMP280;35472;50.514;30.448;2024-02-23T10:34:47;99781.47;;;8.30
49567;BMP280;35472;50.514;30.448;2024-02-23T10:37:16;99780.72;;;8.36
49567;BMP280;35472;50.514;30.448;2024-02-23T10:39:42;99777.31;;;8.29
49567;BMP280;35472;50.514;30.448;2024-02-23T10:42:09;99775.72;;;8.53
49567;BMP280;35472;50.514;30.448;2024-02-23T10:44:36;99786.09;;;8.47
49567;BMP280;35472;50.514;30.448;2024-02-23T10:47:02;99778.44;;;8.39
49567;BMP280;35472;50.514;30.448;2024-02-23T10:49:31;99776.53;;;8.39
49567;BMP280;35472;50.514;30.448;2024-02-23T10:51:56;99783.00;;;8.52
49567;BMP280;35472;50.514;30.448;2024-02-23T10:54:22;99773.44;;;8.41
49567;BMP280;35472;50.514;30.448;2024-02-23T10:56:50;99784.19;;;8.33
49567;BMP280;35472;50.514;30.448;2024-02-23T10:59:16;99775.34;;;8.51
49567;BMP280;35472;50.514;30.448;2024-02-23T11:01:51;99782.25;;;8.45
49567;BMP280;35472;50.514;30.448;2024-02-23T11:04:19;99777.97;;;8.75
49567;BMP280;35472;50.514;30.448;2024-02-23T11:06:55;99775.72;;;8.63
49567;BMP280;35472;50.514;30.448;2024-02-23T11:09:24;99772.19;;;8.80
49567;BMP280;35472;50.514;30.448;2024-02-23T11:11:57;99779.19;;;8.53
49567;BMP280;35472;50.514;30.448;2024-02-23T11:14:34;99775.75;;;8.49
49567;BMP280;35472;50.514;30.448;2024-02-23T11:17:00;99770.75;;;8.58
49567;BMP280;35472;50.514;30.448;2024-02-23T11:19:37;99774.47;;;8.93
49567;BMP280;35472;50.514;30.448;2024-02-23T11:22:03;99761.09;;;8.82
49567;BMP280;35472;50.514;30.448;2024-02-23T11:24:30;99774.91;;;8.70
49567;BMP280;35472;50.514;30.448;2024-02-23T11:27:00;99771.66;;;9.17
49567;BMP280;35472;50.514;30.448;2024-02-23T11:29:33;99768.34;;;8.96
49567;BMP280;35472;50.514;30.448;2024-02-23T11:32:00;99765.25;;;8.94
49567;BMP280;35472;50.514;30.448;2024-02-23T11:34:27;99767.53;;;9.02
49567;BMP280;35472;50.514;30.448;2024-02-23T11:36:53;99764.47;;;9.07
49567;BMP280;35472;50.514;30.448;2024-02-23T11:39:19;99773.19;;;9.29
49567;BMP280;35472;50.514;30.448;2024-02-23T11:41:48;99766.28;;;9.17
49567;BMP280;35472;50.514;30.448;2024-02-23T11:44:16;99779.34;;;9.19
49567;BMP280;35472;50.514;30.448;2024-02-23T11:46:46;99766.75;;;9.05
49567;BMP280;35472;50.514;30.448;2024-02-23T11:49:12;99770.97;;;9.10
49567;BMP280;35472;50.514;30.448;2024-02-23T11:51:39;99776.72;;;9.05
49567;BMP280;35472;50.514;30.448;2024-02-23T11:54:05;99764.34;;;9.28
49567;BMP280;35472;50.514;30.448;2024-02-23T11:56:31;99773.88;;;9.37
49567;BMP280;35472;50.514;30.448;2024-02-23T11:58:56;99774.81;;;9.02
49567;BMP280;35472;50.514;30.448;2024-02-23T12:01:22;99775.09;;;9.28
49567;BMP280;35472;50.514;30.448;2024-02-23T12:03:49;99762.84;;;9.20
49567;BMP280;35472;50.514;30.448;2024-02-23T12:06:15;99767.19;;;8.90
49567;BMP280;35472;50.514;30.448;2024-02-23T12:08:41;99793.09;;;9.31
49567;BMP280;35472;50.514;30.448;2024-02-23T12:11:08;99779.69;;;9.28
49567;BMP280;35472;50.514;30.448;2024-02-23T12:13:35;99778.22;;;9.13
49567;BMP280;35472;50.514;30.448;2024-02-23T12:16:01;99773.25;;;9.15
49567;BMP280;35472;50.514;30.448;2024-02-23T12:18:27;99779.63;;;9.39
49567;BMP280;35472;50.514;30.448;2024-02-23T12:21:01;99781.94;;;9.37
49567;BMP280;35472;50.514;30.448;2024-02-23T12:23:41;99769.69;;;9.32
49567;BMP280;35472;50.514;30.448;2024-02-23T12:26:07;99778.63;;;9.15
49567;BMP280;35472;50.514;30.448;2024-02-23T12:28:33;99789.63;;;9.42
49567;BMP280;35472;50.514;30.448;2024-02-23T12:31:03;99785.06;;;9.24
49567;BMP280;35472;50.514;30.448;2024-02-23T12:33:33;99784.59;;;9.44
49567;BMP280;35472;50.514;30.448;2024-02-23T12:36:00;99787.50;;;9.70
49567;BMP280;35472;50.514;30.448;2024-02-23T12:38:25;99786.47;;;9.50
49567;BMP280;35472;50.514;30.448;2024-02-23T12:40:53;99785.59;;;9.67
49567;BMP280;35472;50.514;30.448;2024-02-23T12:43:19;99782.94;;;9.64
49567;BMP280;35472;50.514;30.448;2024-02-23T12:45:55;99781.75;;;9.72
49567;BMP280;35472;50.514;30.448;2024-02-23T12:48:21;99780.56;;;9.73
49567;BMP280;35472;50.514;30.448;2024-02-23T12:50:47;99785.25;;;9.62
49567;BMP280;35472;50.514;30.448;2024-02-23T12:53:30;99787.47;;;9.77
49567;BMP280;35472;50.514;30.448;2024-02-23T12:56:06;99797.91;;;9.65
49567;BMP280;35472;50.514;30.448;2024-02-23T12:58:36;99796.66;;;9.80
49567;BMP280;35472;50.514;30.448;2024-02-23T13:01:02;99807.31;;;9.91
49567;BMP280;35472;50.514;30.448;2024-02-23T13:03:28;99800.38;;;9.93
49567;BMP280;35472;50.514;30.448;2024-02-23T13:05:57;99802.16;;;9.62
49567;BMP280;35472;50.514;30.448;2024-02-23T13:08:23;99795.13;;;9.75
49567;BMP280;35472;50.514;30.448;2024-02-23T13:10:50;99801.19;;;9.87
49567;BMP280;35472;50.514;30.448;2024-02-23T13:13:15;99793.81;;;10.01
49567;BMP280;35472;50.514;30.448;2024-02-23T13:15:44;99792.13;;;9.63
49567;BMP280;35472;50.514;30.448;2024-02-23T13:18:10;99797.09;;;9.68
49567;BMP280;35472;50.514;30.448;2024-02-23T13:20:39;99807.84;;;9.68
49567;BMP280;35472;50.514;30.448;2024-02-23T13:23:05;99809.69;;;9.81
49567;BMP280;35472;50.514;30.448;2024-02-23T13:25:32;99806.78;;;10.13
49567;BMP280;35472;50.514;30.448;2024-02-23T13:27:57;99810.69;;;10.02
49567;BMP280;35472;50.514;30.448;2024-02-23T13:30:23;99816.16;;;9.91
49567;BMP280;35472;50.514;30.448;2024-02-23T13:32:49;99819.00;;;9.66
49567;BMP280;35472;50.514;30.448;2024-02-23T13:35:14;99818.28;;;9.59
49567;BMP280;35472;50.514;30.448;2024-02-23T13:37:41;99811.13;;;9.93
49567;BMP280;35472;50.514;30.448;2024-02-23T13:40:08;99816.47;;;10.00
49567;BMP280;35472;50.514;30.448;2024-02-23T13:42:34;99801.72;;;9.67
49567;BMP280;35472;50.514;30.448;2024-02-23T13:45:00;99813.63;;;9.66
49567;BMP280;35472;50.514;30.448;2024-02-23T13:47:27;99803.19;;;9.79
49567;BMP280;35472;50.514;30.448;2024-02-23T13:49:53;99812.38;;;9.85
49567;BMP280;35472;50.514;30.448;2024-02-23T13:52:18;99812.41;;;9.78
49567;BMP280;35472;50.514;30.448;2024-02-23T13:54:43;99817.06;;;9.70
49567;BMP280;35472;50.514;30.448;2024-02-23T13:57:09;99813.13;;;9.82
49567;BMP280;35472;50.514;30.448;2024-02-23T13:59:40;99812.66;;;9.94
49567;BMP280;35472;50.514;30.448;2024-02-23T14:02:06;99804.00;;;9.72
49567;BMP280;35472;50.514;30.448;2024-02-23T14:04:31;99812.81;;;9.73